createdAt,value
2018-12-17T00:01:11.742Z,-3.34
2018-12-17T00:03:40.308Z,-3.29
2018-12-17T00:06:09.039Z,-3.42
2018-12-17T00:08:37.754Z,-3.52
2018-12-17T00:11:06.597Z,-3.58
2018-12-17T00:13:35.143Z,-3.58
2018-12-17T00:16:03.831Z,-3.58
2018-12-17T00:18:32.449Z,-3.55
2018-12-17T00:21:01.129Z,-3.55
2018-12-17T00:23:29.712Z,-3.50
2018-12-17T00:25:58.436Z,-3.49
2018-12-17T00:28:27.164Z,-3.57
2018-12-17T00:30:55.729Z,-3.54
2018-12-17T00:33:24.378Z,-3.57
2018-12-17T00:35:52.968Z,-3.55
2018-12-17T00:38:21.571Z,-3.53
2018-12-17T00:40:50.236Z,-3.55
2018-12-17T00:43:18.807Z,-3.58
2018-12-17T00:45:47.389Z,-3.55
2018-12-17T00:48:15.978Z,-3.51
2018-12-17T00:50:44.541Z,-3.48
2018-12-17T00:53:13.144Z,-3.46
2018-12-17T00:55:41.748Z,-3.46
2018-12-17T01:00:45.153Z,-3.43
2018-12-17T01:04:42.866Z,-3.39
2018-12-17T01:07:11.458Z,-3.42
2018-12-17T01:09:40.326Z,-3.49
2018-12-17T01:12:08.977Z,-3.48
2018-12-17T01:14:38.075Z,-3.52
2018-12-17T01:17:06.667Z,-3.49
2018-12-17T01:19:35.311Z,-3.50
2018-12-17T01:25:03.093Z,-3.52
2018-12-17T01:27:32.325Z,-3.51
2018-12-17T01:30:00.898Z,-3.50
2018-12-17T01:32:29.451Z,-3.46
2018-12-17T01:34:58.606Z,-3.40
2018-12-17T01:37:27.250Z,-3.33
2018-12-17T01:39:55.885Z,-3.26
2018-12-17T01:42:24.490Z,-3.25
2018-12-17T01:44:53.090Z,-3.34
2018-12-17T01:47:21.688Z,-3.42
2018-12-17T01:49:50.254Z,-3.42
2018-12-17T01:52:18.916Z,-3.36
2018-12-17T01:54:47.555Z,-3.33
2018-12-17T01:57:16.099Z,-3.33
2018-12-17T01:59:44.690Z,-3.28
2018-12-17T02:02:13.274Z,-3.34
2018-12-17T02:04:42.422Z,-3.36
2018-12-17T02:07:11.483Z,-3.39
2018-12-17T02:09:40.075Z,-3.41
2018-12-17T02:12:08.720Z,-3.37
2018-12-17T02:14:37.302Z,-3.40
2018-12-17T02:17:05.938Z,-3.48
2018-12-17T02:19:34.482Z,-3.48
2018-12-17T02:22:03.093Z,-3.54
2018-12-17T02:24:31.664Z,-3.49
2018-12-17T02:27:00.248Z,-3.53
2018-12-17T02:29:28.845Z,-3.48
2018-12-17T02:31:57.522Z,-3.50
2018-12-17T02:34:26.087Z,-3.52
2018-12-17T02:36:54.672Z,-3.52
2018-12-17T02:39:23.239Z,-3.55
2018-12-17T02:41:51.893Z,-3.55
2018-12-17T02:44:20.704Z,-3.50
2018-12-17T02:46:49.287Z,-3.50
2018-12-17T02:49:18.131Z,-3.54
2018-12-17T02:51:46.723Z,-3.53
2018-12-17T02:54:15.312Z,-3.46
2018-12-17T02:56:43.878Z,-3.38
2018-12-17T02:59:12.455Z,-3.43
2018-12-17T03:01:41.056Z,-3.43
2018-12-17T03:05:12.748Z,-3.43
2018-12-17T03:07:41.286Z,-3.48
2018-12-17T03:10:10.350Z,-3.48
2018-12-17T03:12:38.911Z,-3.48
2018-12-17T03:15:08.067Z,-3.42
2018-12-17T03:17:36.697Z,-3.37
2018-12-17T03:20:05.755Z,-3.38
2018-12-17T03:22:34.423Z,-3.27
2018-12-17T03:25:03.092Z,-3.23
2018-12-17T03:27:31.768Z,-3.23
2018-12-17T03:30:00.375Z,-3.22
2018-12-17T03:32:28.994Z,-3.17
2018-12-17T03:34:57.600Z,-3.11
2018-12-17T03:37:26.133Z,-3.12
2018-12-17T03:39:54.718Z,-3.07
2018-12-17T03:42:23.274Z,-2.99
2018-12-17T03:44:51.876Z,-3.00
2018-12-17T03:47:20.512Z,-3.00
2018-12-17T03:49:49.055Z,-3.05
2018-12-17T03:52:17.687Z,-3.08
2018-12-17T03:54:46.845Z,-3.20
2018-12-17T03:57:15.444Z,-3.25
2018-12-17T03:59:44.077Z,-3.26
2018-12-17T04:02:12.684Z,-3.25
2018-12-17T04:04:41.391Z,-3.23
2018-12-17T04:07:09.915Z,-3.21
2018-12-17T04:09:38.491Z,-3.17
2018-12-17T04:12:07.049Z,-3.14
2018-12-17T04:14:35.645Z,-3.16
2018-12-17T04:17:04.290Z,-3.18
2018-12-17T04:19:32.889Z,-3.25
2018-12-17T04:22:01.513Z,-3.37
2018-12-17T04:24:30.168Z,-3.46
2018-12-17T04:26:58.760Z,-3.46
2018-12-17T04:29:27.379Z,-3.49
2018-12-17T04:31:55.950Z,-3.51
2018-12-17T04:34:24.525Z,-3.46
2018-12-17T04:36:53.094Z,-3.42
2018-12-17T04:39:21.710Z,-3.42
2018-12-17T04:41:50.419Z,-3.43
2018-12-17T04:44:19.649Z,-3.45
2018-12-17T04:46:48.222Z,-3.50
2018-12-17T04:49:16.816Z,-3.51
2018-12-17T04:51:45.437Z,-3.50
2018-12-17T04:54:14.032Z,-3.46
2018-12-17T04:56:42.582Z,-3.40
2018-12-17T04:59:14.671Z,-3.48
2018-12-17T05:01:41.869Z,-3.52
2018-12-17T05:04:11.415Z,-3.53
2018-12-17T05:06:39.996Z,-3.57
2018-12-17T05:09:09.146Z,-3.62
2018-12-17T05:11:37.770Z,-3.56
2018-12-17T05:14:06.417Z,-3.50
2018-12-17T05:16:35.097Z,-3.46
2018-12-17T05:19:03.719Z,-3.51
2018-12-17T05:21:32.319Z,-3.49
2018-12-17T05:24:00.874Z,-3.51
2018-12-17T05:26:29.446Z,-3.52
2018-12-17T05:28:58.050Z,-3.47
2018-12-17T05:31:26.618Z,-3.47
2018-12-17T05:33:55.230Z,-3.49
2018-12-17T05:36:23.804Z,-3.49
2018-12-17T05:38:52.363Z,-3.51
2018-12-17T05:41:20.918Z,-3.54
2018-12-17T05:43:49.536Z,-3.52
2018-12-17T05:46:18.136Z,-3.55
2018-12-17T05:48:46.739Z,-3.59
2018-12-17T05:51:15.339Z,-3.62
2018-12-17T05:53:44.116Z,-3.66
2018-12-17T05:56:12.699Z,-3.67
2018-12-17T05:58:41.297Z,-3.64
2018-12-17T06:01:09.912Z,-3.66
2018-12-17T06:03:38.521Z,-3.64
2018-12-17T06:06:07.146Z,-3.58
2018-12-17T06:08:36.818Z,-3.49
2018-12-17T06:11:05.425Z,-3.37
2018-12-17T06:13:34.053Z,-3.21
2018-12-17T06:16:02.659Z,-3.17
2018-12-17T06:18:31.242Z,-3.14
2018-12-17T06:20:59.950Z,-3.09
2018-12-17T06:23:28.491Z,-3.12
2018-12-17T06:25:57.149Z,-3.06
2018-12-17T06:28:25.780Z,-2.93
2018-12-17T06:30:54.436Z,-2.87
2018-12-17T06:33:24.536Z,-2.83
2018-12-17T06:35:53.307Z,-2.83
2018-12-17T06:38:21.867Z,-2.99
2018-12-17T06:40:50.573Z,-2.86
2018-12-17T06:43:19.190Z,-2.84
2018-12-17T06:45:47.794Z,-2.81
2018-12-17T06:48:17.293Z,-2.71
2018-12-17T06:50:46.233Z,-2.67
2018-12-17T06:53:15.552Z,-2.59
2018-12-17T06:55:44.277Z,-2.54
2018-12-17T06:58:13.345Z,-2.55
2018-12-17T07:00:42.104Z,-2.56
2018-12-17T07:03:10.708Z,-2.64
2018-12-17T07:05:39.352Z,-2.71
2018-12-17T07:08:07.958Z,-2.79
2018-12-17T07:10:36.561Z,-2.88
2018-12-17T07:13:05.156Z,-2.87
2018-12-17T07:15:34.017Z,-2.76
2018-12-17T07:18:02.604Z,-2.67
2018-12-17T07:20:31.151Z,-2.61
2018-12-17T07:22:59.748Z,-2.64
2018-12-17T07:25:28.368Z,-2.75
2018-12-17T07:27:57.028Z,-2.84
2018-12-17T07:30:31.927Z,-2.74
2018-12-17T07:33:00.515Z,-2.61
2018-12-17T07:35:29.163Z,-2.69
2018-12-17T07:37:57.709Z,-2.64
2018-12-17T07:40:26.465Z,-2.73
2018-12-17T07:42:55.149Z,-2.65
2018-12-17T07:45:24.087Z,-2.64
2018-12-17T07:47:52.696Z,-2.49
2018-12-17T07:50:21.354Z,-2.42
2018-12-17T07:52:49.929Z,-2.38
2018-12-17T07:55:18.549Z,-2.38
2018-12-17T07:57:47.163Z,-2.26
2018-12-17T08:00:15.872Z,-2.04
2018-12-17T08:02:44.461Z,-1.77
2018-12-17T08:05:13.107Z,-1.54
2018-12-17T08:07:41.759Z,-1.40
2018-12-17T08:10:10.351Z,-1.34
2018-12-17T08:12:38.994Z,-1.19
2018-12-17T08:15:07.839Z,-1.16
2018-12-17T08:17:36.517Z,-1.12
2018-12-17T08:20:05.650Z,-1.00
2018-12-17T08:22:34.624Z,-0.98
2018-12-17T08:25:03.307Z,-0.84
2018-12-17T08:27:31.922Z,-0.74
2018-12-17T08:30:03.937Z,-0.72
2018-12-17T08:32:31.087Z,-0.70
2018-12-17T08:34:59.942Z,-0.50
2018-12-17T08:37:28.572Z,-0.65
2018-12-17T08:39:57.237Z,-0.48
2018-12-17T08:42:25.899Z,-0.33
2018-12-17T08:44:54.588Z,-0.15
2018-12-17T08:47:23.234Z,-0.14
2018-12-17T08:49:51.867Z,-0.02
2018-12-17T08:52:20.530Z,0.05
2018-12-17T08:54:49.834Z,-0.01
2018-12-17T08:57:18.507Z,-0.04
2018-12-17T08:59:47.161Z,0.20
2018-12-17T09:02:15.814Z,0.35
2018-12-17T09:04:44.433Z,0.41
2018-12-17T09:07:13.084Z,0.59
2018-12-17T09:09:41.721Z,0.69
2018-12-17T09:12:10.656Z,0.90
2018-12-17T09:14:39.342Z,0.78
2018-12-17T09:17:07.994Z,0.88
2018-12-17T09:19:36.638Z,0.81
2018-12-17T09:22:05.327Z,0.53
2018-12-17T09:24:34.054Z,0.54
2018-12-17T09:27:02.678Z,0.39
2018-12-17T09:29:31.362Z,0.51
2018-12-17T09:32:00.018Z,0.48
2018-12-17T09:34:28.659Z,0.39
2018-12-17T09:36:57.281Z,0.40
2018-12-17T09:39:25.867Z,0.43
2018-12-17T09:41:54.450Z,0.51
2018-12-17T09:44:23.023Z,0.50
2018-12-17T09:46:51.706Z,0.44
2018-12-17T09:49:20.587Z,0.39
2018-12-17T09:51:49.215Z,0.43
2018-12-17T09:54:17.907Z,0.63
2018-12-17T09:56:46.534Z,0.56
2018-12-17T09:59:15.163Z,0.50
2018-12-17T10:01:43.801Z,0.55
2018-12-17T10:04:12.404Z,0.69
2018-12-17T10:06:41.002Z,0.73
2018-12-17T10:09:09.681Z,0.66
2018-12-17T10:11:38.309Z,0.53
2018-12-17T10:14:07.005Z,0.83
2018-12-17T10:16:35.620Z,0.85
2018-12-17T10:19:04.238Z,0.85
2018-12-17T10:21:32.854Z,0.88
2018-12-17T10:24:01.526Z,0.96
2018-12-17T10:26:30.291Z,0.97
2018-12-17T10:28:58.931Z,1.03
2018-12-17T10:31:27.589Z,0.84
2018-12-17T10:33:56.227Z,0.94
2018-12-17T10:36:24.887Z,1.12
2018-12-17T10:38:53.510Z,1.08
2018-12-17T10:41:22.158Z,1.02
2018-12-17T10:43:50.839Z,1.11
2018-12-17T10:46:19.461Z,1.23
2018-12-17T10:48:48.100Z,1.28
2018-12-17T10:51:16.811Z,1.30
2018-12-17T10:53:45.496Z,1.31
2018-12-17T10:56:14.183Z,1.53
2018-12-17T10:58:42.797Z,1.47
2018-12-17T11:01:16.644Z,1.55
2018-12-17T11:03:49.353Z,1.60
2018-12-17T11:06:21.966Z,1.64
2018-12-17T11:08:51.141Z,1.55
2018-12-17T11:11:19.702Z,1.70
2018-12-17T11:13:48.304Z,1.69
2018-12-17T11:16:16.960Z,1.45
2018-12-17T11:18:45.640Z,1.50
2018-12-17T11:21:14.308Z,1.39
2018-12-17T11:23:43.533Z,1.22
2018-12-17T11:26:12.396Z,0.95
2018-12-17T11:28:41.232Z,1.00
2018-12-17T11:31:09.837Z,1.24
2018-12-17T11:33:38.451Z,1.20
2018-12-17T11:36:07.072Z,1.30
2018-12-17T11:38:35.668Z,1.32
2018-12-17T11:41:04.327Z,1.26
2018-12-17T11:43:32.985Z,1.32
2018-12-17T11:46:03.667Z,1.34
2018-12-17T11:48:32.531Z,1.26
2018-12-17T11:51:01.830Z,1.20
2018-12-17T11:53:30.775Z,1.18
2018-12-17T11:55:59.367Z,1.36
2018-12-17T11:58:28.090Z,1.39
2018-12-17T12:01:01.448Z,1.53
2018-12-17T12:03:31.045Z,1.63
2018-12-17T12:05:59.755Z,1.69
2018-12-17T12:08:28.380Z,1.56
2018-12-17T12:10:57.081Z,1.64
2018-12-17T12:13:25.917Z,1.69
2018-12-17T12:15:54.562Z,1.57
2018-12-17T12:18:23.221Z,1.55
2018-12-17T12:20:51.946Z,1.56
2018-12-17T12:23:20.590Z,1.50
2018-12-17T12:25:49.223Z,1.50
2018-12-17T12:28:19.514Z,1.36
2018-12-17T12:30:48.853Z,1.27
2018-12-17T12:33:17.680Z,1.36
2018-12-17T12:35:46.825Z,1.35
2018-12-17T12:38:15.638Z,1.29
2018-12-17T12:40:44.825Z,1.27
2018-12-17T12:43:13.863Z,1.39
2018-12-17T12:45:42.525Z,1.41
2018-12-17T12:48:11.129Z,1.42
2018-12-17T12:50:39.785Z,1.50
2018-12-17T12:53:08.456Z,1.45
2018-12-17T12:55:37.638Z,1.38
2018-12-17T12:58:06.971Z,1.51
2018-12-17T13:00:35.819Z,1.29
2018-12-17T13:03:04.913Z,1.28
2018-12-17T13:05:34.475Z,1.24
2018-12-17T13:08:03.163Z,1.36
2018-12-17T13:10:32.114Z,1.40
2018-12-17T13:13:01.604Z,1.40
2018-12-17T13:15:30.829Z,1.36
2018-12-17T13:17:59.414Z,1.34
2018-12-17T13:20:28.065Z,1.44
2018-12-17T13:22:56.681Z,1.46
2018-12-17T13:25:38.435Z,1.51
2018-12-17T13:28:07.087Z,1.34
2018-12-17T13:30:35.785Z,1.51
2018-12-17T13:33:04.555Z,1.49
2018-12-17T13:35:33.200Z,1.49
2018-12-17T13:38:02.125Z,1.50
2018-12-17T13:40:30.765Z,1.46
2018-12-17T13:42:59.477Z,1.39
2018-12-17T13:45:28.084Z,1.39
2018-12-17T13:47:56.823Z,1.31
2018-12-17T13:50:30.805Z,1.36
2018-12-17T13:53:04.576Z,1.35
2018-12-17T13:55:33.286Z,1.31
2018-12-17T13:58:02.032Z,1.23
2018-12-17T14:00:30.751Z,1.19
2018-12-17T14:02:59.373Z,1.18
2018-12-17T14:05:28.583Z,1.22
2018-12-17T14:07:57.203Z,1.22
2018-12-17T14:10:30.814Z,1.05
2018-12-17T14:12:59.888Z,1.06
2018-12-17T14:15:32.627Z,1.04
2018-12-17T14:18:03.281Z,0.85
2018-12-17T14:20:38.218Z,0.88
2018-12-17T14:23:06.881Z,0.80
2018-12-17T14:25:35.623Z,0.76
2018-12-17T14:28:04.218Z,0.82
2018-12-17T14:30:32.784Z,0.79
2018-12-17T14:33:07.869Z,0.73
2018-12-17T14:35:42.780Z,0.76
2018-12-17T14:38:12.661Z,0.62
2018-12-17T14:40:42.632Z,0.64
2018-12-17T14:43:13.244Z,0.64
2018-12-17T14:45:46.484Z,0.67
2018-12-17T14:48:15.928Z,0.55
2018-12-17T14:50:45.937Z,0.52
2018-12-17T14:53:15.464Z,0.44
2018-12-17T14:55:45.260Z,0.39
2018-12-17T14:58:14.152Z,0.44
2018-12-17T15:00:44.163Z,0.48
2018-12-17T15:03:12.783Z,0.55
2018-12-17T15:05:41.508Z,0.47
2018-12-17T15:08:10.231Z,0.48
2018-12-17T15:10:38.846Z,0.46
2018-12-17T15:13:07.545Z,0.53
2018-12-17T15:15:36.307Z,0.52
2018-12-17T15:18:04.935Z,0.46
2018-12-17T15:20:33.618Z,0.40
2018-12-17T15:23:03.517Z,0.20
2018-12-17T15:25:32.197Z,0.13
2018-12-17T15:28:01.002Z,0.15
2018-12-17T15:30:29.782Z,0.12
2018-12-17T15:32:58.448Z,0.06
2018-12-17T15:35:27.054Z,0.06
2018-12-17T15:37:55.700Z,0.01
2018-12-17T15:40:24.335Z,-0.04
2018-12-17T15:42:52.949Z,-0.02
2018-12-17T15:45:21.698Z,-0.05
2018-12-17T15:47:50.402Z,-0.04
2018-12-17T15:50:19.177Z,-0.08
2018-12-17T15:52:47.841Z,-0.07
2018-12-17T15:55:16.585Z,-0.08
2018-12-17T15:57:46.669Z,-0.10
2018-12-17T16:00:15.369Z,-0.01
2018-12-17T16:02:43.979Z,-0.10
2018-12-17T16:05:12.687Z,-0.02
2018-12-17T16:07:41.344Z,0.03
2018-12-17T16:10:10.112Z,-0.02
2018-12-17T16:12:38.721Z,-0.14
2018-12-17T16:15:07.625Z,-0.25
2018-12-17T16:17:36.296Z,-0.34
2018-12-17T16:20:05.069Z,-0.30
2018-12-17T16:22:33.704Z,-0.37
2018-12-17T16:25:02.291Z,-0.41
2018-12-17T16:27:30.913Z,-0.51
2018-12-17T16:29:59.754Z,-0.46
2018-12-17T16:32:28.384Z,-0.53
2018-12-17T16:34:57.015Z,-0.56
2018-12-17T16:37:25.846Z,-0.83
2018-12-17T16:39:54.471Z,-0.93
2018-12-17T16:42:23.127Z,-0.95
2018-12-17T16:44:51.794Z,-0.96
2018-12-17T16:47:20.436Z,-1.05
2018-12-17T16:49:49.085Z,-1.04
2018-12-17T16:52:17.802Z,-1.08
2018-12-17T16:54:46.414Z,-1.20
2018-12-17T16:57:15.076Z,-1.30
2018-12-17T16:59:43.657Z,-1.29
2018-12-17T17:02:12.430Z,-1.30
2018-12-17T17:04:41.595Z,-1.28
2018-12-17T17:07:10.352Z,-1.30
2018-12-17T17:09:39.011Z,-1.38
2018-12-17T17:12:07.743Z,-1.37
2018-12-17T17:14:36.341Z,-1.39
2018-12-17T17:17:19.354Z,-1.37
2018-12-17T17:19:51.011Z,-1.33
2018-12-17T17:22:18.719Z,-1.42
2018-12-17T17:24:47.409Z,-1.45
2018-12-17T17:27:15.951Z,-1.38
2018-12-17T17:29:44.626Z,-1.28
2018-12-17T17:32:13.272Z,-1.18
2018-12-17T17:34:42.156Z,-1.27
2018-12-17T17:37:10.789Z,-1.20
2018-12-17T17:39:39.476Z,-1.17
2018-12-17T17:42:08.094Z,-1.24
2018-12-17T17:44:36.731Z,-1.27
2018-12-17T17:47:05.997Z,-1.23
2018-12-17T17:49:34.635Z,-1.27
2018-12-17T17:52:03.342Z,-1.30
2018-12-17T17:54:32.025Z,-1.34
2018-12-17T17:57:00.657Z,-1.36
2018-12-17T17:59:29.349Z,-1.38
2018-12-17T18:01:57.960Z,-1.38
2018-12-17T18:04:26.626Z,-1.41
2018-12-17T18:06:55.216Z,-1.38
2018-12-17T18:09:23.912Z,-1.37
2018-12-17T18:11:53.132Z,-1.39
2018-12-17T18:14:22.728Z,-1.45
2018-12-17T18:16:51.403Z,-1.51
2018-12-17T18:19:20.211Z,-1.50
2018-12-17T18:21:48.807Z,-1.46
2018-12-17T18:24:17.757Z,-1.44
2018-12-17T18:26:46.338Z,-1.44
2018-12-17T18:29:14.986Z,-1.37
2018-12-17T18:31:43.721Z,-1.41
2018-12-17T18:34:12.317Z,-1.38
2018-12-17T18:36:40.997Z,-1.41
2018-12-17T18:39:09.823Z,-1.41
2018-12-17T18:41:38.550Z,-1.41
2018-12-17T18:44:07.348Z,-1.34
2018-12-17T18:46:36.028Z,-1.38
2018-12-17T18:49:05.128Z,-1.38
2018-12-17T18:51:33.705Z,-1.41
2018-12-17T18:54:02.305Z,-1.38
2018-12-17T18:56:31.273Z,-1.33
2018-12-17T18:58:59.880Z,-1.28
2018-12-17T19:01:29.433Z,-1.36
2018-12-17T19:03:58.079Z,-1.38
2018-12-17T19:06:26.772Z,-1.40
2018-12-17T19:08:55.459Z,-1.39
2018-12-17T19:11:25.749Z,-1.40
2018-12-17T19:13:54.419Z,-1.42
2018-12-17T19:16:23.115Z,-1.40
2018-12-17T19:18:51.962Z,-1.42
2018-12-17T19:21:20.806Z,-1.57
2018-12-17T19:23:49.808Z,-1.57
2018-12-17T19:26:18.399Z,-1.52
2018-12-17T19:28:47.071Z,-1.54
2018-12-17T19:31:18.378Z,-1.48
2018-12-17T19:34:20.880Z,-1.57
2018-12-17T19:36:49.940Z,-1.57
2018-12-17T19:39:18.743Z,-1.53
2018-12-17T19:41:47.654Z,-1.52
2018-12-17T19:44:16.288Z,-1.56
2018-12-17T19:46:44.907Z,-1.62
2018-12-17T19:49:16.070Z,-1.78
2018-12-17T19:51:44.737Z,-1.89
2018-12-17T19:54:13.416Z,-2.00
2018-12-17T19:56:42.041Z,-2.03
2018-12-17T19:59:11.646Z,-2.02
2018-12-17T20:01:40.363Z,-2.00
2018-12-17T20:04:09.054Z,-1.99
2018-12-17T20:06:37.719Z,-1.91
2018-12-17T20:09:07.079Z,-1.91
2018-12-17T20:11:35.851Z,-2.02
2018-12-17T20:14:04.542Z,-2.09
2018-12-17T20:16:33.231Z,-2.25
2018-12-17T20:19:03.030Z,-2.23
2018-12-17T20:21:32.667Z,-2.26
2018-12-17T20:24:01.332Z,-2.27
2018-12-17T20:26:29.967Z,-2.27
2018-12-17T20:28:58.589Z,-2.33
2018-12-17T20:31:27.280Z,-2.35
2018-12-17T20:33:55.877Z,-2.39
2018-12-17T20:36:24.635Z,-2.39
2018-12-17T20:38:53.819Z,-2.40
2018-12-17T20:41:22.620Z,-2.41
2018-12-17T20:43:51.405Z,-2.41
2018-12-17T20:46:20.083Z,-2.40
2018-12-17T20:48:48.755Z,-2.36
2018-12-17T20:51:17.397Z,-2.41
2018-12-17T20:53:46.014Z,-2.43
2018-12-17T20:56:14.618Z,-2.45
2018-12-17T20:58:43.301Z,-2.41
2018-12-17T21:01:12.029Z,-2.38
2018-12-17T21:03:40.655Z,-2.40
2018-12-17T21:06:10.125Z,-2.37
2018-12-17T21:08:38.781Z,-2.27
2018-12-17T21:11:07.433Z,-2.32
2018-12-17T21:13:36.149Z,-2.32
2018-12-17T21:16:05.219Z,-2.35
2018-12-17T21:18:33.913Z,-2.36
2018-12-17T21:21:02.594Z,-2.41
2018-12-17T21:23:31.525Z,-2.44
2018-12-17T21:26:00.843Z,-2.47
2018-12-17T21:28:29.811Z,-2.55
2018-12-17T21:30:58.559Z,-2.55
2018-12-17T21:33:27.335Z,-2.46
2018-12-17T21:35:55.942Z,-2.47
2018-12-17T21:38:24.611Z,-2.45
2018-12-17T21:40:53.245Z,-2.44
2018-12-17T21:43:21.850Z,-2.38
2018-12-17T21:45:50.550Z,-2.42
2018-12-17T21:48:19.274Z,-2.44
2018-12-17T21:50:47.889Z,-2.43
2018-12-17T21:53:16.458Z,-2.41
2018-12-17T21:55:45.057Z,-2.52
2018-12-17T21:58:13.921Z,-2.57
2018-12-17T22:00:43.029Z,-2.57
2018-12-17T22:03:13.439Z,-2.61
2018-12-17T22:05:42.175Z,-2.65
2018-12-17T22:08:10.787Z,-2.66
2018-12-17T22:10:39.424Z,-2.61
2018-12-17T22:13:08.017Z,-2.61
2018-12-17T22:15:37.336Z,-2.61
2018-12-17T22:18:05.961Z,-2.61
2018-12-17T22:20:34.705Z,-2.61
2018-12-17T22:23:03.329Z,-2.56
2018-12-17T22:25:32.062Z,-2.54
2018-12-17T22:28:00.756Z,-2.55
2018-12-17T22:30:29.432Z,-2.65
2018-12-17T22:32:58.038Z,-2.62
2018-12-17T22:35:26.596Z,-2.63
2018-12-17T22:37:55.281Z,-2.63
2018-12-17T22:40:23.966Z,-2.62
2018-12-17T22:42:52.614Z,-2.61
2018-12-17T22:45:21.273Z,-2.59
2018-12-17T22:47:49.910Z,-2.50
2018-12-17T22:50:18.529Z,-2.49
2018-12-17T22:52:47.210Z,-2.43
2018-12-17T22:55:15.809Z,-2.45
2018-12-17T22:57:44.474Z,-2.36
2018-12-17T23:00:13.447Z,-2.34
2018-12-17T23:02:42.125Z,-2.40
2018-12-17T23:05:13.598Z,-2.41
2018-12-17T23:07:42.339Z,-2.41
2018-12-17T23:10:23.010Z,-2.43
2018-12-17T23:13:03.074Z,-2.52
2018-12-17T23:15:42.729Z,-2.55
2018-12-17T23:18:10.217Z,-2.57
2018-12-17T23:20:39.172Z,-2.55
2018-12-17T23:23:07.936Z,-2.54
2018-12-17T23:25:36.622Z,-2.65
2018-12-17T23:28:05.465Z,-2.63
2018-12-17T23:30:34.135Z,-2.66
2018-12-17T23:33:02.741Z,-2.60
2018-12-17T23:35:31.438Z,-2.58
2018-12-17T23:38:00.165Z,-2.47
2018-12-17T23:40:28.845Z,-2.48
2018-12-17T23:42:57.529Z,-2.44
2018-12-17T23:45:26.180Z,-2.51
2018-12-17T23:47:54.888Z,-2.49
2018-12-17T23:50:23.487Z,-2.36
2018-12-17T23:52:52.122Z,-2.42
2018-12-17T23:55:21.281Z,-2.38
2018-12-17T23:57:49.941Z,-2.40
